Tucson, AZ (85749)

2:02 AM MST on August 27, 2016 (GMT -0700)
| | Change Station

Elev -9999 ft 0.00 °N, 0.00 °E | Updated

Clear
Clear
70 °F
Feels Like 70 °F
N
4
Wind Variable Wind from SE
Gusts mph

Today
High -- | Low -- °F
--% Chance of Precip.
Yesterday
High -- | Low -- °F
Precip. -- in
Pressure 29.86 in
Visibility 10.0 miles
Clouds Mostly Cloudy 9000 ft
Dew Point 59 °F
Humidity 69%
Rainfall --
Snow Depth Not available.
5:55 AM 6:52 PM
Waning Crescent, 26% visible
METAR KDMA 270858Z AUTO 13005KT 10SM BKN090 23/16 A2998 RMK AO2 SLP111 T02250162 55000 CHINO RWY30 $
Pressure 29.86 in
Visibility 10.0 miles
Clouds Mostly Cloudy 9000 ft
Dew Point 59 °F
Humidity 69%
Rainfall --
Snow Depth Not available.
5:55 AM 6:52 PM
Waning Crescent, 26% visible
METAR KDMA 270858Z AUTO 13005KT 10SM BKN090 23/16 A2998 RMK AO2 SLP111 T02250162 55000 CHINO RWY30 $

10-Day Weather Forecast

Almanac

Astronomy

Aug. 27, 2016 Rise Set
Actual Time
Civil Twilight
Nautical Twilight
Astronomical Twilight
Moon
Length of Visible Light
Length of Day
Tomorrow will be .
, % of the Moon is Illuminated

Today's Extremes

State Highs State Lows

Community

WunderPhotos

Upload Photos

1,935,313 photos uploaded!

WunderBlog® & News

Nearby

Air Quality

  Air Quality AQ Index Pollutant
Not available.

Snow Depth

Station Depth Elevation

Earthquake Activity

City Distance Mag. Time & Date
Minimum magnitude displayed is 2.5.

Coastal Water Temperatures

Place Temperature

Stations

Nearby Weather Stations

Station Location Temp. Windchill Dew Point Humidity Wind Precip. Elev Updated Type
                   

Watches & Warnings

There are currently no watches in effect.